Time;durP1;ratioP1;P1;durP2;ratioP2;P2;SDS_P1;SDS_P2;PMS_P1;PMS_P2;Temp;Humidity;BMP_temperature;BMP_pressure;BME280_temperature;BME280_humidity;BME280_pressure;Samples;Min_cycle;Max_cycle;Signal;HPM_P1;HPM_P2
2022/07/25 00:02:22;;;;;;;2.70;2.40;;;21.70;99.90;;;;;;5022002;28;20397;-90
2022/07/25 00:04:48;;;;;;;3.78;2.38;;;21.70;99.90;;;;;;5002855;28;20033;-90
2022/07/25 00:07:14;;;;;;;2.80;2.28;;;21.70;99.90;;;;;;5021017;28;20073;-87
2022/07/25 00:09:40;;;;;;;2.40;1.88;;;21.60;99.90;;;;;;5003129;28;20337;-90
2022/07/25 00:12:06;;;;;;;2.20;2.05;;;21.60;99.90;;;;;;5020884;28;20155;-91
2022/07/25 00:14:31;;;;;;;2.53;2.33;;;21.60;99.90;;;;;;5003202;28;20543;-90
2022/07/25 00:16:57;;;;;;;1.77;1.67;;;21.60;99.90;;;;;;4987255;28;20512;-90
2022/07/25 00:19:22;;;;;;;2.20;2.10;;;21.60;99.90;;;;;;5002663;28;20041;-91
2022/07/25 00:21:49;;;;;;;2.20;1.83;;;21.60;99.90;;;;;;5021095;28;20037;-90
2022/07/25 00:24:14;;;;;;;3.15;2.60;;;21.60;99.90;;;;;;5020354;28;20350;-91
2022/07/25 00:26:40;;;;;;;4.05;2.70;;;21.60;99.90;;;;;;5003242;28;20259;-90
2022/07/25 00:29:05;;;;;;;2.58;2.33;;;21.60;99.90;;;;;;5019425;28;20041;-90
2022/07/25 00:31:31;;;;;;;3.22;1.90;;;21.60;99.90;;;;;;4986336;28;20044;-90
2022/07/25 00:33:56;;;;;;;2.90;2.58;;;21.60;99.90;;;;;;5003160;28;20034;-90
2022/07/25 00:36:22;;;;;;;2.70;2.42;;;21.50;99.90;;;;;;5020700;28;20322;-90
2022/07/25 00:38:47;;;;;;;2.80;2.60;;;21.50;99.90;;;;;;5001431;28;20067;-90
2022/07/25 00:41:13;;;;;;;3.63;2.38;;;21.50;99.90;;;;;;5020733;28;20061;-90
2022/07/25 00:43:43;;;;;;;2.38;2.17;;;21.50;99.90;;;;;;5020824;28;20044;-90
2022/07/25 00:46:12;;;;;;;2.85;2.20;;;21.40;99.90;;;;;;5021368;28;20076;-90
2022/07/25 00:48:38;;;;;;;3.47;2.00;;;21.40;99.90;;;;;;5020799;28;20041;-90
2022/07/25 00:51:04;;;;;;;5.47;2.60;;;21.40;99.90;;;;;;5019934;28;20081;-90
2022/07/25 00:53:30;;;;;;;2.53;2.40;;;21.40;99.90;;;;;;5019194;28;20741;-90
2022/07/25 00:55:56;;;;;;;3.13;2.60;;;21.40;99.90;;;;;;5003083;28;20034;-90
2022/07/25 00:58:21;;;;;;;3.22;2.88;;;21.30;99.90;;;;;;5002978;28;20033;-90
2022/07/25 01:00:47;;;;;;;2.42;2.22;;;21.30;99.90;;;;;;5001551;28;20049;-90
2022/07/25 01:03:13;;;;;;;2.42;1.98;;;21.30;99.90;;;;;;5020854;28;20473;-90
2022/07/25 01:05:38;;;;;;;5.07;2.80;;;21.30;99.90;;;;;;5002615;28;20041;-90
2022/07/25 01:08:04;;;;;;;2.47;2.28;;;21.30;99.90;;;;;;5003647;28;20122;-90
2022/07/25 01:10:31;;;;;;;3.60;2.35;;;21.30;99.90;;;;;;5038721;28;20136;-90
2022/07/25 01:12:57;;;;;;;3.25;2.55;;;21.30;99.90;;;;;;5047014;22;20507;-90
2022/07/25 01:15:23;;;;;;;2.28;2.15;;;21.20;99.90;;;;;;5022912;28;20068;-90
2022/07/25 01:17:49;;;;;;;2.42;2.17;;;21.20;99.90;;;;;;5019319;28;20038;-90
2022/07/25 01:20:16;;;;;;;3.25;2.58;;;21.10;99.90;;;;;;5019962;28;20051;-90
2022/07/25 01:22:43;;;;;;;3.30;3.00;;;21.10;99.90;;;;;;5020532;28;20049;-90
2022/07/25 01:25:13;;;;;;;2.60;2.05;;;21.10;99.90;;;;;;5015917;28;20068;-90
2022/07/25 01:27:39;;;;;;;2.88;2.17;;;21.10;99.90;;;;;;5040169;28;20562;-90
2022/07/25 01:30:08;;;;;;;4.20;2.70;;;21.10;99.90;;;;;;5033422;28;20052;-90
2022/07/25 01:32:35;;;;;;;3.33;2.45;;;21.10;99.90;;;;;;5019975;28;20046;-90
2022/07/25 01:35:01;;;;;;;2.70;2.50;;;21.00;99.90;;;;;;5030770;28;20434;-89
2022/07/25 01:37:27;;;;;;;3.42;2.78;;;21.00;99.90;;;;;;5018733;28;20322;-90
2022/07/25 01:39:52;;;;;;;2.83;2.30;;;21.00;99.90;;;;;;5026147;28;21029;-90
2022/07/25 01:42:18;;;;;;;3.25;2.95;;;21.00;99.90;;;;;;5039446;28;20044;-90
2022/07/25 01:44:44;;;;;;;5.38;2.95;;;21.00;99.90;;;;;;5037745;28;20356;-89
2022/07/25 01:47:09;;;;;;;6.70;3.38;;;20.90;99.90;;;;;;5019688;28;20526;-90
2022/07/25 01:49:35;;;;;;;3.13;2.75;;;20.90;99.90;;;;;;5020216;28;20046;-90
2022/07/25 01:52:01;;;;;;;4.00;3.10;;;20.90;99.90;;;;;;5017911;28;20266;-90
2022/07/25 01:54:26;;;;;;;3.25;2.92;;;20.90;99.90;;;;;;5031872;28;20320;-90
2022/07/25 01:56:52;;;;;;;3.22;2.92;;;20.90;99.90;;;;;;5022183;28;20124;-90
2022/07/25 01:59:17;;;;;;;4.28;3.90;;;20.90;99.90;;;;;;5018058;28;20046;-90
2022/07/25 02:01:43;;;;;;;4.97;3.15;;;20.90;99.90;;;;;;5020063;28;20073;-90
2022/07/25 02:04:09;;;;;;;4.45;4.05;;;20.90;99.90;;;;;;5034990;28;20029;-89
2022/07/25 02:06:35;;;;;;;5.18;3.85;;;20.90;99.90;;;;;;5006738;28;20090;-90
2022/07/25 02:09:02;;;;;;;5.93;3.75;;;20.90;99.90;;;;;;5018839;28;20041;-90
2022/07/25 02:11:28;;;;;;;3.78;3.45;;;20.90;99.90;;;;;;5028932;28;20042;-90
2022/07/25 02:13:53;;;;;;;6.60;4.25;;;20.90;99.90;;;;;;5050030;28;20056;-90
2022/07/25 02:16:19;;;;;;;6.32;4.55;;;20.90;99.90;;;;;;5020569;28;20041;-90
2022/07/25 02:18:44;;;;;;;4.55;3.25;;;20.90;99.90;;;;;;5025044;28;20132;-90
2022/07/25 02:21:10;;;;;;;5.75;3.95;;;20.90;99.90;;;;;;5039307;28;20477;-90
2022/07/25 02:23:36;;;;;;;8.02;4.55;;;20.90;99.90;;;;;;5006627;28;20527;-90
2022/07/25 02:26:02;;;;;;;8.15;4.30;;;20.90;99.90;;;;;;5016987;28;20423;-90
2022/07/25 02:28:28;;;;;;;5.65;5.13;;;20.90;99.90;;;;;;5023279;28;20526;-90
2022/07/25 02:30:53;;;;;;;6.18;4.60;;;20.90;99.90;;;;;;5038900;28;20032;-90
2022/07/25 02:33:19;;;;;;;6.68;3.80;;;20.90;99.90;;;;;;5027602;28;20076;-90
2022/07/25 02:35:44;;;;;;;4.70;3.42;;;20.80;99.90;;;;;;5014955;28;20044;-91
2022/07/25 02:38:18;;;;;;;4.53;3.88;;;20.80;99.90;;;;;;5036513;28;20107;-90
2022/07/25 02:40:50;;;;;;;4.97;4.53;;;20.80;99.90;;;;;;5024352;28;20094;-89
2022/07/25 02:43:17;;;;;;;6.18;4.97;;;20.80;99.90;;;;;;5028090;28;20543;-90
2022/07/25 02:45:43;;;;;;;4.07;3.72;;;20.80;99.90;;;;;;5030132;28;20052;-90
2022/07/25 02:48:09;;;;;;;5.18;4.68;;;20.80;99.90;;;;;;5018107;28;20491;-90
2022/07/25 02:50:36;;;;;;;4.80;4.03;;;20.80;99.90;;;;;;5031187;28;20041;-90
2022/07/25 02:53:02;;;;;;;5.13;4.07;;;20.80;99.90;;;;;;5034856;28;20112;-90
2022/07/25 02:55:27;;;;;;;6.20;4.22;;;20.80;99.90;;;;;;5038767;28;20125;-90
2022/07/25 02:57:53;;;;;;;5.63;3.97;;;20.70;99.90;;;;;;5037258;28;20773;-89
2022/07/25 03:00:19;;;;;;;10.00;4.15;;;20.70;99.90;;;;;;5038384;28;20041;-90
2022/07/25 03:02:44;;;;;;;6.03;4.18;;;20.70;99.90;;;;;;5030776;28;20531;-91
2022/07/25 03:05:13;;;;;;;5.13;3.47;;;20.70;99.90;;;;;;5021621;28;20411;-90
2022/07/25 03:07:39;;;;;;;3.28;2.97;;;20.70;99.90;;;;;;5039445;28;20465;-90
2022/07/25 03:10:06;;;;;;;3.72;3.20;;;20.60;99.90;;;;;;5034720;28;20037;-90
2022/07/25 03:12:32;;;;;;;4.35;3.95;;;20.60;99.90;;;;;;5032495;28;20136;-90
2022/07/25 03:14:58;;;;;;;3.72;3.40;;;20.60;99.90;;;;;;5034507;28;20187;-90
2022/07/25 03:17:24;;;;;;;13.05;3.42;;;20.60;99.90;;;;;;5027702;28;20344;-90
2022/07/25 03:19:50;;;;;;;4.15;3.70;;;20.60;99.90;;;;;;5031771;28;20041;-91
2022/07/25 03:22:16;;;;;;;3.47;3.17;;;20.60;99.90;;;;;;5027752;28;20748;-90
2022/07/25 03:24:42;;;;;;;10.80;3.30;;;20.60;99.90;;;;;;5018291;28;20026;-90
2022/07/25 03:27:07;;;;;;;3.78;3.47;;;20.50;99.90;;;;;;5018222;28;20048;-89
2022/07/25 03:29:33;;;;;;;3.67;2.85;;;20.50;99.90;;;;;;5016285;28;20060;-90
2022/07/25 03:31:59;;;;;;;5.68;4.13;;;20.50;99.90;;;;;;5032576;28;20483;-90
2022/07/25 03:34:25;;;;;;;4.32;2.85;;;20.50;99.90;;;;;;5019342;28;20419;-90
2022/07/25 03:36:50;;;;;;;4.22;3.28;;;20.50;99.90;;;;;;5018036;28;20033;-90
2022/07/25 03:39:17;;;;;;;3.97;3.47;;;20.50;99.90;;;;;;5017253;28;20049;-90
2022/07/25 03:41:42;;;;;;;4.03;3.00;;;20.50;99.90;;;;;;5032180;28;20065;-90
2022/07/25 03:44:08;;;;;;;8.40;4.95;;;20.40;99.90;;;;;;5034338;28;20082;-90
2022/07/25 03:46:33;;;;;;;3.08;2.78;;;20.40;99.90;;;;;;5035273;28;20398;-90
2022/07/25 03:48:59;;;;;;;3.80;3.60;;;20.40;99.90;;;;;;5037533;28;20036;-90
2022/07/25 03:51:24;;;;;;;4.22;2.70;;;20.40;99.90;;;;;;5038237;28;20044;-90
2022/07/25 03:54:23;;;;;;;2.97;2.75;;;20.40;99.90;;;;;;5022535;28;20041;-91
2022/07/25 03:56:48;;;;;;;8.98;3.92;;;20.40;99.90;;;;;;5029337;28;20045;-90
2022/07/25 03:59:16;;;;;;;5.47;3.90;;;20.40;99.90;;;;;;5038090;28;20029;-90
2022/07/25 04:01:44;;;;;;;4.13;2.97;;;20.40;99.90;;;;;;5034639;28;20122;-90
2022/07/25 04:04:10;;;;;;;3.70;2.83;;;20.40;99.90;;;;;;5034873;28;20414;-90
2022/07/25 04:06:37;;;;;;;3.42;2.90;;;20.40;99.90;;;;;;5025215;28;20045;-90
2022/07/25 04:09:03;;;;;;;4.55;4.15;;;20.40;99.90;;;;;;5039394;28;20052;-90
2022/07/25 04:11:29;;;;;;;4.20;3.63;;;20.40;99.90;;;;;;5027950;28;20491;-91
2022/07/25 04:13:56;;;;;;;3.45;3.13;;;20.40;99.90;;;;;;5023854;28;20362;-91
2022/07/25 04:16:23;;;;;;;3.55;3.13;;;20.40;99.90;;;;;;5021498;28;20053;-91
2022/07/25 04:18:50;;;;;;;4.10;3.45;;;20.30;99.90;;;;;;5022326;28;20266;-90
2022/07/25 04:21:15;;;;;;;2.83;2.63;;;20.30;99.90;;;;;;5020641;28;20174;-90
2022/07/25 04:23:41;;;;;;;4.60;4.20;;;20.30;99.90;;;;;;5005925;28;20053;-91
2022/07/25 04:26:07;;;;;;;4.13;3.30;;;20.30;99.90;;;;;;5026807;28;20052;-90
2022/07/25 04:28:32;;;;;;;6.28;3.83;;;20.30;99.90;;;;;;5040578;28;20122;-90
2022/07/25 04:30:58;;;;;;;4.53;3.40;;;20.30;99.90;;;;;;5039284;28;20042;-90
2022/07/25 04:33:24;;;;;;;5.05;4.35;;;20.30;99.90;;;;;;5030323;28;20041;-90
2022/07/25 04:35:50;;;;;;;6.22;4.32;;;20.30;99.90;;;;;;5044380;28;20488;-90
2022/07/25 04:38:16;;;;;;;4.63;3.78;;;20.30;99.90;;;;;;5044863;28;20045;-89
2022/07/25 04:40:42;;;;;;;4.25;3.35;;;20.30;99.90;;;;;;5027267;28;20037;-89
2022/07/25 04:43:07;;;;;;;4.25;3.78;;;20.30;99.90;;;;;;5033495;28;20092;-90
2022/07/25 04:45:33;;;;;;;3.85;3.55;;;20.30;99.90;;;;;;5021142;28;20790;-90
2022/07/25 04:48:00;;;;;;;6.97;4.30;;;20.30;99.90;;;;;;5021728;28;20049;-90
2022/07/25 04:50:26;;;;;;;7.43;4.93;;;20.30;99.90;;;;;;5023229;28;20107;-91
2022/07/25 04:52:52;;;;;;;4.95;4.00;;;20.30;99.90;;;;;;5020501;28;20490;-90
2022/07/25 04:55:17;;;;;;;8.52;3.97;;;20.30;99.90;;;;;;5033608;28;20128;-90
2022/07/25 04:57:43;;;;;;;4.30;3.75;;;20.30;99.90;;;;;;5024314;28;20041;-90
2022/07/25 05:00:10;;;;;;;4.43;4.00;;;20.30;99.90;;;;;;5039728;28;20045;-90
2022/07/25 05:02:36;;;;;;;5.30;4.35;;;20.30;99.90;;;;;;5041696;28;20168;-90
2022/07/25 05:05:02;;;;;;;4.80;4.30;;;20.30;99.90;;;;;;5025441;28;20095;-90
2022/07/25 05:07:28;;;;;;;5.85;4.45;;;20.30;99.90;;;;;;5027238;28;20130;-90
2022/07/25 05:09:54;;;;;;;4.93;3.72;;;20.30;99.90;;;;;;5040975;28;20553;-90
2022/07/25 05:12:19;;;;;;;5.05;3.95;;;20.30;99.90;;;;;;5034135;28;20048;-91
2022/07/25 05:14:45;;;;;;;5.28;4.78;;;20.30;99.90;;;;;;5021956;28;20046;-90
2022/07/25 05:17:11;;;;;;;5.22;4.30;;;20.30;99.90;;;;;;5023010;28;20581;-91
2022/07/25 05:19:36;;;;;;;4.15;3.65;;;20.30;99.90;;;;;;5027751;28;20558;-90
2022/07/25 05:22:03;;;;;;;10.63;5.28;;;20.30;99.90;;;;;;5041211;28;20051;-91
2022/07/25 05:24:32;;;;;;;7.72;5.15;;;20.30;99.90;;;;;;5038544;28;20044;-91
2022/07/25 05:26:58;;;;;;;8.65;5.32;;;20.30;99.90;;;;;;5039471;28;20701;-90
2022/07/25 05:29:23;;;;;;;6.53;5.15;;;20.30;99.90;;;;;;5021432;28;20052;-91
2022/07/25 05:31:49;;;;;;;4.82;4.30;;;20.30;99.90;;;;;;5031147;28;20044;-91
2022/07/25 05:34:14;;;;;;;5.40;4.68;;;20.30;99.90;;;;;;5039375;28;20449;-91
2022/07/25 05:36:40;;;;;;;4.40;4.03;;;20.30;99.90;;;;;;5041975;28;20037;-91
2022/07/25 05:39:05;;;;;;;4.90;4.43;;;20.30;99.90;;;;;;5038421;28;20394;-91
2022/07/25 05:41:31;;;;;;;5.72;4.95;;;20.30;99.90;;;;;;5033469;28;20100;-91
2022/07/25 05:43:57;;;;;;;5.40;4.63;;;20.40;99.90;;;;;;5019830;28;20769;-91
2022/07/25 05:46:22;;;;;;;6.28;4.72;;;20.40;99.90;;;;;;5022482;28;20735;-90
2022/07/25 05:48:48;;;;;;;7.47;6.22;;;20.40;99.90;;;;;;5033730;28;20046;-91
2022/07/25 05:51:13;;;;;;;8.55;5.13;;;20.40;99.90;;;;;;5038516;28;20053;-85
2022/07/25 05:53:39;;;;;;;5.28;4.68;;;20.50;99.90;;;;;;5019685;28;20128;-90
2022/07/25 05:56:05;;;;;;;9.10;5.45;;;20.50;99.90;;;;;;5021755;28;20456;-91
2022/07/25 05:58:30;;;;;;;5.82;5.22;;;20.50;99.90;;;;;;5031167;28;20041;-91
2022/07/25 06:00:57;;;;;;;7.57;5.90;;;20.50;99.90;;;;;;5039177;28;20072;-90
2022/07/25 06:03:23;;;;;;;6.47;5.82;;;20.60;99.90;;;;;;5037343;28;20573;-90
2022/07/25 06:05:48;;;;;;;8.50;6.07;;;20.60;99.90;;;;;;5020618;28;20045;-90
2022/07/25 06:08:14;;;;;;;6.35;5.78;;;20.60;99.90;;;;;;5032222;28;20706;-88
2022/07/25 06:10:40;;;;;;;7.30;6.10;;;20.60;99.90;;;;;;5021283;28;20129;-90
2022/07/25 06:13:06;;;;;;;7.70;5.18;;;20.60;99.90;;;;;;5039474;28;20136;-90
2022/07/25 06:15:32;;;;;;;6.45;5.80;;;20.60;99.90;;;;;;5042378;28;20051;-90
2022/07/25 06:17:58;;;;;;;7.78;6.20;;;20.60;99.90;;;;;;5022562;28;20049;-90
2022/07/25 06:20:23;;;;;;;10.02;6.53;;;20.70;99.90;;;;;;5039808;28;20075;-90
2022/07/25 06:22:49;;;;;;;8.70;6.07;;;20.70;99.90;;;;;;5038897;28;20049;-90
2022/07/25 06:25:15;;;;;;;6.90;5.53;;;20.70;99.90;;;;;;5038175;28;20040;-91
2022/07/25 06:27:41;;;;;;;7.55;5.72;;;20.70;99.90;;;;;;5024732;28;20603;-84
2022/07/25 06:30:08;;;;;;;7.25;6.25;;;20.80;99.90;;;;;;5026878;28;20518;-83
2022/07/25 06:32:34;;;;;;;7.78;6.93;;;20.90;99.90;;;;;;5020871;28;20891;-83
2022/07/25 06:34:59;;;;;;;9.50;6.63;;;20.90;99.90;;;;;;5002586;28;20053;-92
2022/07/25 06:37:25;;;;;;;7.60;6.82;;;21.00;99.90;;;;;;5031833;28;20033;-86
2022/07/25 06:39:50;;;;;;;5.72;5.13;;;21.10;99.90;;;;;;5035106;28;20420;-90
2022/07/25 06:42:16;;;;;;;7.90;5.57;;;21.10;99.90;;;;;;5020210;28;20110;-88
2022/07/25 06:44:42;;;;;;;9.20;6.65;;;21.10;99.90;;;;;;5020360;28;20533;-86
2022/07/25 06:47:11;;;;;;;4.70;3.72;;;21.20;99.90;;;;;;5029181;28;20048;-86
2022/07/25 06:49:37;;;;;;;6.32;4.75;;;21.20;99.90;;;;;;5045636;28;20051;-85
2022/07/25 06:52:04;;;;;;;4.25;3.78;;;21.20;99.90;;;;;;5048589;28;20076;-85
2022/07/25 06:54:29;;;;;;;5.75;3.60;;;21.30;99.90;;;;;;5037809;28;20029;-84
2022/07/25 06:56:55;;;;;;;4.07;3.15;;;21.30;99.90;;;;;;5034937;28;20094;-85
2022/07/25 06:59:20;;;;;;;3.25;3.00;;;21.30;99.90;;;;;;5035154;28;20105;-85
2022/07/25 07:01:46;;;;;;;4.32;3.92;;;21.30;99.90;;;;;;5023804;28;20033;-90
2022/07/25 07:04:12;;;;;;;5.93;3.72;;;21.40;99.90;;;;;;5034889;28;20444;-86
2022/07/25 07:06:38;;;;;;;2.17;1.95;;;21.40;99.90;;;;;;5041724;28;20091;-81
2022/07/25 07:09:05;;;;;;;1.83;1.50;;;21.40;99.90;;;;;;5034713;28;20056;-83
2022/07/25 07:11:30;;;;;;;2.30;2.03;;;21.40;99.90;;;;;;5021569;28;20044;-81
2022/07/25 07:13:56;;;;;;;1.85;1.70;;;21.40;99.90;;;;;;5033874;28;20053;-85
2022/07/25 07:16:21;;;;;;;2.08;1.88;;;21.40;99.90;;;;;;5058838;28;20033;-83
2022/07/25 07:18:47;;;;;;;1.63;1.52;;;21.30;99.90;;;;;;5059423;28;20141;-79
2022/07/25 07:21:12;;;;;;;1.88;1.77;;;21.30;99.90;;;;;;5058861;28;20044;-82
2022/07/25 07:23:38;;;;;;;2.10;1.90;;;21.30;99.90;;;;;;5057523;28;20051;-79
2022/07/25 07:26:04;;;;;;;2.83;1.33;;;21.30;99.90;;;;;;5057695;28;20354;-80
2022/07/25 07:28:29;;;;;;;1.88;1.20;;;21.30;99.90;;;;;;5059483;28;20041;-79
2022/07/25 07:30:55;;;;;;;3.58;1.60;;;21.30;99.90;;;;;;5058573;28;20457;-77
2022/07/25 07:33:20;;;;;;;1.05;1.02;;;21.30;99.90;;;;;;5058993;28;20094;-77
2022/07/25 07:35:46;;;;;;;1.08;1.08;;;21.30;99.90;;;;;;5057962;28;20049;-80
2022/07/25 07:38:12;;;;;;;2.25;1.45;;;21.30;99.90;;;;;;5059108;28;20048;-81
2022/07/25 07:40:37;;;;;;;3.40;1.58;;;21.30;99.90;;;;;;5062860;28;20101;-81
2022/07/25 07:43:03;;;;;;;1.75;1.65;;;21.20;99.90;;;;;;5062760;28;20122;-78
2022/07/25 07:45:29;;;;;;;3.60;1.73;;;21.20;99.90;;;;;;5063000;28;20036;-77
2022/07/25 07:47:55;;;;;;;3.22;1.42;;;21.10;99.90;;;;;;5061645;28;20662;-77
2022/07/25 07:50:26;;;;;;;2.90;1.67;;;21.10;99.90;;;;;;5063144;28;20585;-77
2022/07/25 07:52:53;;;;;;;2.47;1.17;;;21.10;99.90;;;;;;5061977;28;20449;-79
2022/07/25 07:58:04;;;;;;;1.67;1.20;;;21.10;99.90;;;;;;5058602;28;20055;-78
2022/07/25 08:00:30;;;;;;;3.70;2.10;;;21.10;99.90;;;;;;5040422;28;20454;-80
2022/07/25 08:02:57;;;;;;;0.70;0.70;;;21.10;99.90;;;;;;5041443;28;20041;-80
2022/07/25 08:05:28;;;;;;;1.70;1.60;;;21.10;99.90;;;;;;5041858;28;20048;-79
2022/07/25 08:07:54;;;;;;;5.00;1.77;;;21.00;99.90;;;;;;5039058;28;20038;-79
2022/07/25 08:10:22;;;;;;;1.90;1.80;;;21.00;99.90;;;;;;5027734;28;20582;-84
2022/07/25 08:12:48;;;;;;;1.30;1.00;;;21.10;99.90;;;;;;5048376;28;20053;-81
2022/07/25 08:15:14;;;;;;;4.82;3.08;;;21.00;99.90;;;;;;5039911;28;20048;-78
2022/07/25 08:17:40;;;;;;;1.48;1.38;;;21.10;99.90;;;;;;5035098;28;20083;-82
2022/07/25 08:20:07;;;;;;;3.40;1.77;;;21.10;99.90;;;;;;5041823;28;20037;-78
2022/07/25 08:22:50;;;;;;;1.40;1.30;;;21.10;99.90;;;;;;5039852;28;20051;-77
2022/07/25 08:25:19;;;;;;;6.75;1.70;;;21.10;99.90;;;;;;5038364;28;20059;-78
2022/07/25 08:27:45;;;;;;;1.48;1.33;;;21.10;99.90;;;;;;5038892;28;20029;-79
2022/07/25 08:30:12;;;;;;;3.58;1.75;;;21.10;99.90;;;;;;5041587;28;20076;-81
2022/07/25 08:32:56;;;;;;;2.80;1.38;;;21.10;99.90;;;;;;5030764;28;20046;-84
2022/07/25 08:35:23;;;;;;;1.58;1.42;;;21.20;99.90;;;;;;5022248;28;20041;-87
2022/07/25 08:37:49;;;;;;;1.35;1.15;;;21.20;99.90;;;;;;5042539;28;20454;-83
2022/07/25 08:40:17;;;;;;;1.52;1.42;;;21.20;99.90;;;;;;5041344;28;20040;-83
2022/07/25 08:42:44;;;;;;;1.98;0.90;;;21.30;99.90;;;;;;5041367;28;20044;-87
2022/07/25 08:45:12;;;;;;;1.05;0.95;;;21.30;99.90;;;;;;5042023;28;20045;-88
2022/07/25 08:47:39;;;;;;;1.17;1.05;;;21.40;99.90;;;;;;5041415;28;20047;-83
2022/07/25 08:50:11;;;;;;;2.08;1.70;;;21.40;99.90;;;;;;5039912;28;20044;-83
2022/07/25 08:52:37;;;;;;;;;;;21.40;99.90;;;;;;5041127;28;20037;-86
2022/07/25 08:55:09;;;;;;;1.42;1.33;;;21.40;99.90;;;;;;5034537;28;19928;-85
2022/07/25 08:57:36;;;;;;;1.83;1.73;;;21.40;99.90;;;;;;5040155;28;20091;-86
2022/07/25 09:00:05;;;;;;;2.10;1.55;;;21.40;99.90;;;;;;5039288;28;20037;-83
2022/07/25 09:02:30;;;;;;;1.48;1.38;;;21.40;99.90;;;;;;5041430;28;20049;-85
2022/07/25 09:04:57;;;;;;;4.20;1.60;;;21.40;99.90;;;;;;5040442;28;20037;-85
2022/07/25 09:07:33;;;;;;;1.27;1.17;;;21.40;99.90;;;;;;5031623;28;20114;-86
2022/07/25 09:10:22;;;;;;;3.40;1.80;;;21.30;99.90;;;;;;5033629;28;20041;-85
2022/07/25 09:12:54;;;;;;;1.55;1.15;;;21.30;99.90;;;;;;5043622;28;20049;-85
2022/07/25 09:15:24;;;;;;;;;;;21.30;99.90;;;;;;5038846;28;20099;-86
2022/07/25 09:17:51;;;;;;;2.88;1.10;;;21.20;99.90;;;;;;5040002;28;19920;-86
2022/07/25 09:20:16;;;;;;;3.17;1.67;;;21.10;99.90;;;;;;5040493;28;20044;-85
2022/07/25 09:22:43;;;;;;;1.52;1.20;;;21.10;99.90;;;;;;5045401;28;20642;-84
2022/07/25 09:25:20;;;;;;;1.85;1.42;;;21.10;99.90;;;;;;5049432;28;20291;-86
2022/07/25 09:27:46;;;;;;;2.38;1.63;;;21.10;99.90;;;;;;5050566;28;20033;-84
2022/07/25 09:30:15;;;;;;;1.75;1.35;;;21.20;99.90;;;;;;5046269;28;20048;-84
2022/07/25 09:32:41;;;;;;;3.17;1.88;;;21.20;99.90;;;;;;5041562;28;20084;-85
2022/07/25 09:35:06;;;;;;;2.03;1.27;;;21.20;99.90;;;;;;5040636;28;20523;-85
2022/07/25 09:37:32;;;;;;;3.40;1.63;;;21.20;99.90;;;;;;5040419;28;20044;-85
2022/07/25 09:39:58;;;;;;;2.17;1.70;;;21.20;99.90;;;;;;5040064;28;20037;-83
2022/07/25 09:42:35;;;;;;;2.03;1.65;;;21.20;99.90;;;;;;5021912;28;20172;-85
2022/07/25 09:45:06;;;;;;;1.55;1.42;;;21.20;99.90;;;;;;5040089;28;20041;-85
2022/07/25 09:47:34;;;;;;;1.60;1.38;;;21.20;99.90;;;;;;5036244;28;20045;-86
2022/07/25 09:50:00;;;;;;;1.52;1.20;;;21.20;99.90;;;;;;5039158;28;20048;-84
2022/07/25 09:52:25;;;;;;;11.48;2.70;;;21.20;99.90;;;;;;5042997;28;20041;-85
2022/07/25 09:54:53;;;;;;;2.10;1.25;;;21.30;99.90;;;;;;5038405;28;20410;-86
2022/07/25 09:57:20;;;;;;;4.05;1.40;;;21.30;99.90;;;;;;5040792;28;20040;-79
2022/07/25 09:59:46;;;;;;;5.57;2.13;;;21.40;99.90;;;;;;5034906;28;20112;-79
2022/07/25 10:02:40;;;;;;;0.95;0.95;;;21.40;99.90;;;;;;5039291;28;20159;-80
2022/07/25 10:05:25;;;;;;;1.73;1.63;;;21.50;99.90;;;;;;5008833;28;20108;-80
2022/07/25 10:07:54;;;;;;;6.75;2.03;;;21.50;99.90;;;;;;5035142;28;20743;-79
2022/07/25 10:10:35;;;;;;;3.17;2.05;;;21.50;99.90;;;;;;5025215;28;20045;-89
2022/07/25 10:13:12;;;;;;;2.90;1.20;;;21.60;99.90;;;;;;5048944;28;20084;-89
2022/07/25 10:15:49;;;;;;;3.80;2.70;;;21.60;99.90;;;;;;5048601;28;20057;-89
2022/07/25 10:18:18;;;;;;;11.82;1.40;;;21.70;99.90;;;;;;5039776;28;20384;-89
2022/07/25 10:20:44;;;;;;;7.30;1.90;;;21.70;99.90;;;;;;5038906;28;20048;-80
2022/07/25 10:23:25;;;;;;;3.13;1.30;;;21.70;99.90;;;;;;5038314;28;20092;-88
2022/07/25 10:26:00;;;;;;;2.08;1.33;;;21.70;99.90;;;;;;5039079;28;20103;-87
2022/07/25 10:28:45;;;;;;;3.90;1.60;;;21.70;99.90;;;;;;5005492;28;20092;-90
2022/07/25 10:31:20;;;;;;;3.00;2.15;;;21.70;99.90;;;;;;5020967;28;20073;-89
2022/07/25 10:33:56;;;;;;;2.15;1.95;;;21.70;99.90;;;;;;5029173;28;20037;-90
2022/07/25 10:36:23;;;;;;;4.47;1.85;;;21.70;99.90;;;;;;5042125;28;20044;-82
2022/07/25 10:38:56;;;;;;;2.47;1.75;;;21.70;99.90;;;;;;5027249;28;20029;-87
2022/07/25 10:41:25;;;;;;;4.57;1.58;;;21.70;99.90;;;;;;5024173;28;20141;-87
2022/07/25 10:43:50;;;;;;;1.85;1.75;;;21.70;99.90;;;;;;5018642;28;20073;-87
2022/07/25 10:46:21;;;;;;;1.50;1.40;;;21.70;99.90;;;;;;5035157;28;20272;-89
2022/07/25 10:48:58;;;;;;;2.50;1.40;;;21.70;99.90;;;;;;5030719;28;20485;-87
2022/07/25 10:51:30;;;;;;;2.45;1.45;;;21.70;99.90;;;;;;5029346;28;20116;-85
2022/07/25 10:53:56;;;;;;;1.45;1.30;;;21.70;99.90;;;;;;5038682;28;20462;-87
2022/07/25 10:56:24;;;;;;;2.75;1.85;;;21.70;99.90;;;;;;5021166;28;20047;-88
2022/07/25 10:58:52;;;;;;;3.50;1.52;;;21.70;99.90;;;;;;5023201;28;20128;-86
2022/07/25 11:01:30;;;;;;;2.65;1.42;;;21.60;99.90;;;;;;5029190;28;20044;-87
2022/07/25 11:03:59;;;;;;;1.98;1.65;;;21.70;99.90;;;;;;5024322;28;20045;-87
2022/07/25 11:06:35;;;;;;;4.00;1.40;;;21.70;99.90;;;;;;5025219;28;20036;-89
2022/07/25 11:09:03;;;;;;;3.67;1.50;;;21.70;99.90;;;;;;5008751;28;20052;-87
2022/07/25 11:11:37;;;;;;;3.85;1.55;;;21.70;99.90;;;;;;5024185;28;20037;-90
2022/07/25 11:14:04;;;;;;;2.03;1.50;;;21.70;99.90;;;;;;5025850;28;20122;-90
2022/07/25 11:16:30;;;;;;;4.30;2.03;;;21.80;99.90;;;;;;5028875;28;20044;-91
2022/07/25 11:18:56;;;;;;;3.38;1.52;;;21.70;99.90;;;;;;5029312;28;20105;-87
2022/07/25 11:21:22;;;;;;;1.45;1.35;;;21.80;99.90;;;;;;5032082;28;20782;-85
2022/07/25 11:23:51;;;;;;;3.63;1.38;;;21.80;99.90;;;;;;5027794;28;20407;-86
2022/07/25 11:26:17;;;;;;;1.88;1.35;;;21.80;99.90;;;;;;5033210;28;20182;-85
2022/07/25 11:28:47;;;;;;;3.63;1.63;;;21.80;99.90;;;;;;5030643;28;20049;-85
2022/07/25 11:31:14;;;;;;;6.15;1.60;;;21.80;99.90;;;;;;5029000;28;20438;-85
2022/07/25 11:33:42;;;;;;;2.42;1.25;;;21.80;99.90;;;;;;5030416;28;20069;-86
2022/07/25 11:36:09;;;;;;;2.65;1.95;;;21.90;99.90;;;;;;5027007;28;20129;-86
2022/07/25 11:38:36;;;;;;;2.03;1.58;;;21.90;99.90;;;;;;5029714;28;20053;-86
2022/07/25 11:41:02;;;;;;;1.20;1.10;;;21.90;99.90;;;;;;5031996;28;20057;-86
2022/07/25 11:43:28;;;;;;;2.15;1.33;;;21.90;99.90;;;;;;5032750;28;20162;-86
2022/07/25 11:46:05;;;;;;;3.90;1.35;;;22.00;99.90;;;;;;5031600;28;20718;-85
2022/07/25 11:48:36;;;;;;;3.45;2.22;;;22.00;99.90;;;;;;5023199;28;20713;-85
2022/07/25 11:51:16;;;;;;;6.13;1.35;;;22.00;99.90;;;;;;5031637;28;20045;-84
2022/07/25 11:53:45;;;;;;;2.95;1.50;;;21.90;99.90;;;;;;5054800;28;20114;-82
2022/07/25 11:56:16;;;;;;;1.77;1.67;;;21.90;99.90;;;;;;5058067;28;20115;-83
2022/07/25 11:58:43;;;;;;;8.20;2.10;;;22.00;99.90;;;;;;5059812;28;20067;-82
2022/07/25 12:01:14;;;;;;;1.70;1.17;;;22.00;99.90;;;;;;5048115;28;20123;-84
2022/07/25 12:03:40;;;;;;;2.85;1.45;;;22.00;99.90;;;;;;5049041;28;20047;-83
2022/07/25 12:06:10;;;;;;;1.67;1.58;;;22.10;99.90;;;;;;5036921;28;20498;-83
2022/07/25 12:08:38;;;;;;;2.97;1.80;;;22.10;99.90;;;;;;5038024;28;20041;-83
2022/07/25 12:11:14;;;;;;;2.47;1.65;;;22.10;99.90;;;;;;5038716;28;20067;-82
2022/07/25 12:13:40;;;;;;;2.50;1.73;;;22.10;99.90;;;;;;5052294;28;20052;-83
2022/07/25 12:16:05;;;;;;;4.18;1.65;;;22.10;99.90;;;;;;5058328;28;20036;-83
2022/07/25 12:18:31;;;;;;;3.17;1.48;;;22.10;99.90;;;;;;5058707;28;20514;-83
2022/07/25 12:20:57;;;;;;;1.92;1.20;;;22.10;99.90;;;;;;5058082;28;20032;-83
2022/07/25 12:23:22;;;;;;;2.38;1.52;;;22.00;99.90;;;;;;5057887;28;20045;-83
2022/07/25 12:25:48;;;;;;;7.78;2.05;;;22.00;99.90;;;;;;5060320;28;20036;-83
2022/07/25 12:28:14;;;;;;;1.95;1.52;;;22.00;99.90;;;;;;5062326;28;20036;-82
2022/07/25 12:30:42;;;;;;;1.90;1.70;;;22.00;99.90;;;;;;5062760;28;20043;-83
2022/07/25 12:33:08;;;;;;;3.55;1.67;;;22.10;99.90;;;;;;5059746;28;20465;-82
2022/07/25 12:35:36;;;;;;;9.07;2.22;;;22.10;99.90;;;;;;5062203;28;20402;-83
2022/07/25 12:38:02;;;;;;;2.55;2.38;;;22.10;99.90;;;;;;5040888;28;20053;-83
2022/07/25 12:40:28;;;;;;;3.58;2.08;;;22.20;99.90;;;;;;5034496;28;20045;-82
2022/07/25 12:42:53;;;;;;;7.75;2.13;;;22.20;99.90;;;;;;5033666;28;20368;-82
2022/07/25 12:45:19;;;;;;;1.88;1.58;;;22.20;99.90;;;;;;5030826;28;20125;-82
2022/07/25 12:47:46;;;;;;;3.38;2.05;;;22.20;99.90;;;;;;5022576;28;20072;-83
2022/07/25 12:50:12;;;;;;;2.33;1.90;;;22.20;99.90;;;;;;5022084;28;20296;-82
2022/07/25 12:52:39;;;;;;;2.25;1.55;;;22.20;99.90;;;;;;5035496;28;20049;-87